createdAt,value
2018-05-12T00:00:41.887Z,17.90
2018-05-12T00:03:09.427Z,17.90
2018-05-12T00:05:37.092Z,17.90
2018-05-12T00:08:04.639Z,17.80
2018-05-12T00:10:32.208Z,17.80
2018-05-12T00:12:59.746Z,17.80
2018-05-12T00:15:28.071Z,17.80
2018-05-12T00:17:55.629Z,17.70
2018-05-12T00:20:23.190Z,17.70
2018-05-12T00:22:50.734Z,17.70
2018-05-12T00:25:18.324Z,17.70
2018-05-12T00:27:45.872Z,17.70
2018-05-12T00:30:13.426Z,17.70
2018-05-12T00:32:40.969Z,17.70
2018-05-12T00:35:08.530Z,17.70
2018-05-12T00:37:36.074Z,17.60
2018-05-12T00:40:03.650Z,17.60
2018-05-12T00:42:31.191Z,17.60
2018-05-12T00:44:59.678Z,17.60
2018-05-12T00:47:27.217Z,17.60
2018-05-12T00:49:55.549Z,17.50
2018-05-12T00:52:23.100Z,17.50
2018-05-12T00:54:50.668Z,17.50
2018-05-12T00:57:18.205Z,17.50
2018-05-12T00:59:45.765Z,17.50
2018-05-12T01:02:13.303Z,17.50
2018-05-12T01:04:40.866Z,17.50
2018-05-12T01:07:08.411Z,17.50
2018-05-12T01:09:36.832Z,17.40
2018-05-12T01:12:04.372Z,17.40
2018-05-12T01:14:31.921Z,17.40
2018-05-12T01:17:00.251Z,17.40
2018-05-12T01:19:27.822Z,17.30
2018-05-12T01:21:56.155Z,17.30
2018-05-12T01:24:23.690Z,17.30
2018-05-12T01:26:52.018Z,17.30
2018-05-12T01:29:19.555Z,17.30
2018-05-12T01:31:47.115Z,17.30
2018-05-12T01:34:14.651Z,17.30
2018-05-12T01:36:42.979Z,17.20
2018-05-12T01:39:10.520Z,17.20
2018-05-12T01:41:38.081Z,17.20
2018-05-12T01:44:05.624Z,17.20
2018-05-12T01:46:33.188Z,17.20
2018-05-12T01:49:00.728Z,17.20
2018-05-12T01:51:29.062Z,17.10
2018-05-12T01:53:56.702Z,17.10
2018-05-12T01:56:24.273Z,17.10
2018-05-12T01:58:52.575Z,17.10
2018-05-12T02:01:20.902Z,17.10
2018-05-12T02:03:48.442Z,17.10
2018-05-12T02:06:16.770Z,17.10
2018-05-12T02:08:44.313Z,17.00
2018-05-12T02:11:11.878Z,17.00
2018-05-12T02:13:39.415Z,17.00
2018-05-12T02:16:06.979Z,17.00
2018-05-12T02:18:34.527Z,17.00
2018-05-12T02:21:02.854Z,16.90
2018-05-12T02:23:30.400Z,16.90
2018-05-12T02:25:57.963Z,16.90
2018-05-12T02:28:51.941Z,16.90
2018-05-12T02:31:19.495Z,16.90
2018-05-12T02:33:47.037Z,16.80
2018-05-12T02:36:14.603Z,16.80
2018-05-12T02:38:42.141Z,16.80
2018-05-12T02:41:10.463Z,16.80
2018-05-12T02:43:37.998Z,16.80
2018-05-12T02:46:05.583Z,16.80
2018-05-12T02:48:33.118Z,16.80
2018-05-12T02:51:00.678Z,16.70
2018-05-12T02:53:28.219Z,16.70
2018-05-12T02:55:56.541Z,16.70
2018-05-12T02:58:24.081Z,16.70
2018-05-12T03:00:51.633Z,16.70
2018-05-12T03:03:19.170Z,16.70
2018-05-12T03:05:47.496Z,16.60
2018-05-12T03:08:15.039Z,16.60
2018-05-12T03:10:42.595Z,16.60
2018-05-12T03:13:10.134Z,16.60
2018-05-12T03:15:38.459Z,16.60
2018-05-12T03:18:06.004Z,16.60
2018-05-12T03:20:33.562Z,16.50
2018-05-12T03:23:01.122Z,16.60
2018-05-12T03:25:28.684Z,16.50
2018-05-12T03:27:56.222Z,16.50
2018-05-12T03:30:23.785Z,16.50
2018-05-12T03:32:51.318Z,16.50
2018-05-12T03:35:19.642Z,16.50
2018-05-12T03:37:47.301Z,16.50
2018-05-12T03:40:15.601Z,16.40
2018-05-12T03:42:43.928Z,16.40
2018-05-12T03:45:12.228Z,16.40
2018-05-12T03:47:39.783Z,16.40
2018-05-12T03:50:07.320Z,16.40
2018-05-12T03:52:35.643Z,16.40
2018-05-12T03:55:03.181Z,16.40
2018-05-12T03:57:30.751Z,16.40
2018-05-12T03:59:58.310Z,16.40
2018-05-12T04:02:25.876Z,16.30
2018-05-12T04:05:14.202Z,16.40
2018-05-12T04:07:53.493Z,16.30
2018-05-12T04:10:42.736Z,16.30
2018-05-12T04:13:10.274Z,16.30
2018-05-12T04:15:37.815Z,16.30
2018-05-12T04:18:06.148Z,16.30
2018-05-12T04:20:33.683Z,16.30
2018-05-12T04:23:01.251Z,16.30
2018-05-12T04:25:28.904Z,16.30
2018-05-12T04:27:56.462Z,16.30
2018-05-12T04:30:24.004Z,16.30
2018-05-12T04:32:51.561Z,16.30
2018-05-12T04:35:19.103Z,16.30
2018-05-12T04:37:47.431Z,16.20
2018-05-12T04:40:14.978Z,16.20
2018-05-12T04:42:42.548Z,16.20
2018-05-12T04:45:10.083Z,16.20
2018-05-12T04:47:37.651Z,16.20
2018-05-12T04:50:05.196Z,16.20
2018-05-12T04:52:32.759Z,16.20
2018-05-12T04:55:00.299Z,16.20
2018-05-12T04:57:28.721Z,16.20
2018-05-12T04:59:56.259Z,16.20
2018-05-12T05:02:23.818Z,16.20
2018-05-12T05:04:51.367Z,16.20
2018-05-12T05:07:19.690Z,16.20
2018-05-12T05:09:47.224Z,16.20
2018-05-12T05:12:14.790Z,16.20
2018-05-12T05:14:42.328Z,16.20
2018-05-12T05:17:10.660Z,16.20
2018-05-12T05:19:38.202Z,16.20
2018-05-12T05:22:05.761Z,16.20
2018-05-12T05:24:33.303Z,16.20
2018-05-12T05:27:00.863Z,16.20
2018-05-12T05:29:28.406Z,16.20
2018-05-12T05:31:56.735Z,16.20
2018-05-12T05:34:24.275Z,16.20
2018-05-12T05:36:53.082Z,16.20
2018-05-12T05:39:20.624Z,16.20
2018-05-12T05:41:48.184Z,16.20
2018-05-12T05:44:15.721Z,16.20
2018-05-12T05:46:43.346Z,16.20
2018-05-12T05:49:10.837Z,16.20
2018-05-12T05:51:38.398Z,16.20
2018-05-12T05:54:05.934Z,16.20
2018-05-12T05:56:34.239Z,16.20
2018-05-12T05:59:01.921Z,16.20
2018-05-12T06:01:29.481Z,16.20
2018-05-12T06:03:57.450Z,16.20
2018-05-12T06:06:25.108Z,16.20
2018-05-12T06:08:52.673Z,16.20
2018-05-12T06:11:22.297Z,16.20
2018-05-12T06:13:49.849Z,16.20
2018-05-12T06:16:17.421Z,16.20
2018-05-12T06:18:44.985Z,16.20
2018-05-12T06:21:12.528Z,16.20
2018-05-12T06:23:40.088Z,16.30
2018-05-12T06:26:07.622Z,16.30
2018-05-12T06:28:35.192Z,16.30
2018-05-12T06:31:02.751Z,16.30
2018-05-12T06:33:30.344Z,16.40
2018-05-12T06:35:57.883Z,16.40
2018-05-12T06:38:25.447Z,16.40
2018-05-12T06:40:52.988Z,16.40
2018-05-12T06:43:20.554Z,16.40
2018-05-12T06:45:48.123Z,16.30
2018-05-12T06:48:15.679Z,16.40
2018-05-12T06:50:43.217Z,16.40
2018-05-12T06:53:10.781Z,16.40
2018-05-12T06:55:38.315Z,16.40
2018-05-12T06:58:06.642Z,16.40
2018-05-12T07:00:34.190Z,16.40
2018-05-12T07:03:01.864Z,16.50
2018-05-12T07:05:29.421Z,16.50
2018-05-12T07:07:56.981Z,16.50
2018-05-12T07:10:24.515Z,16.60
2018-05-12T07:12:52.842Z,16.50
2018-05-12T07:15:20.380Z,16.60
2018-05-12T07:17:48.042Z,16.60
2018-05-12T07:20:15.587Z,16.60
2018-05-12T07:22:43.147Z,16.70
2018-05-12T07:25:10.696Z,16.70
2018-05-12T07:27:39.040Z,16.80
2018-05-12T07:30:06.579Z,16.70
2018-05-12T07:32:34.142Z,16.80
2018-05-12T07:35:01.772Z,16.80
2018-05-12T07:37:29.337Z,16.80
2018-05-12T07:39:56.878Z,16.90
2018-05-12T07:42:25.201Z,17.00
2018-05-12T07:44:52.745Z,17.00
2018-05-12T07:47:20.306Z,17.00
2018-05-12T07:49:47.842Z,17.10
2018-05-12T07:52:15.406Z,17.10
2018-05-12T07:54:42.941Z,17.10
2018-05-12T07:57:11.238Z,17.20
2018-05-12T07:59:38.797Z,17.20
2018-05-12T08:02:06.343Z,17.20
2018-05-12T08:04:34.673Z,17.30
2018-05-12T08:07:02.253Z,17.30
2018-05-12T08:09:29.799Z,17.30
2018-05-12T08:11:57.334Z,17.30
2018-05-12T08:14:24.896Z,17.40
2018-05-12T08:16:52.450Z,17.40
2018-05-12T08:19:20.013Z,17.40
2018-05-12T08:21:47.547Z,17.40
2018-05-12T08:24:15.881Z,17.50
2018-05-12T08:26:43.416Z,17.40
2018-05-12T08:29:10.978Z,17.50
2018-05-12T08:31:38.600Z,17.50
2018-05-12T08:34:06.096Z,17.50
2018-05-12T08:36:33.641Z,17.60
2018-05-12T08:39:01.201Z,17.60
2018-05-12T08:41:28.771Z,17.60
2018-05-12T08:43:56.330Z,17.60
2018-05-12T08:46:23.862Z,17.60
2018-05-12T08:48:52.185Z,17.70
2018-05-12T08:51:19.719Z,17.70
2018-05-12T08:53:47.277Z,17.70
2018-05-12T08:56:14.819Z,17.70
2018-05-12T08:58:43.141Z,17.80
2018-05-12T09:01:10.680Z,17.80
2018-05-12T09:03:38.235Z,17.90
2018-05-12T09:06:05.775Z,17.90
2018-05-12T09:08:34.105Z,18.00
2018-05-12T09:11:01.652Z,18.00
2018-05-12T09:13:29.222Z,18.00
2018-05-12T09:15:56.758Z,18.00
2018-05-12T09:18:24.317Z,18.10
2018-05-12T09:20:51.850Z,18.20
2018-05-12T09:23:20.174Z,18.30
2018-05-12T09:25:47.710Z,18.30
2018-05-12T09:28:15.386Z,18.50
2018-05-12T09:30:42.930Z,18.50
2018-05-12T09:33:10.500Z,18.60
2018-05-12T09:35:38.043Z,18.70
2018-05-12T09:38:05.608Z,18.70
2018-05-12T09:40:33.184Z,18.90
2018-05-12T09:43:00.721Z,19.00
2018-05-12T09:45:28.285Z,19.20
2018-05-12T09:47:55.834Z,19.30
2018-05-12T09:50:24.169Z,19.50
2018-05-12T09:52:51.707Z,19.50
2018-05-12T09:55:19.272Z,19.60
2018-05-12T09:57:46.807Z,19.70
2018-05-12T10:00:16.211Z,19.90
2018-05-12T10:02:43.779Z,19.90
2018-05-12T10:05:11.340Z,20.10
2018-05-12T10:07:38.873Z,20.20
2018-05-12T10:10:07.204Z,20.50
2018-05-12T10:12:34.734Z,20.50
2018-05-12T10:15:02.304Z,20.60
2018-05-12T10:17:29.837Z,20.80
2018-05-12T10:19:57.398Z,21.00
2018-05-12T10:22:24.967Z,21.00
2018-05-12T10:24:52.557Z,20.80
2018-05-12T10:27:20.091Z,20.50
2018-05-12T10:29:47.665Z,20.30
2018-05-12T10:32:15.213Z,20.30
2018-05-12T10:34:42.772Z,20.30
2018-05-12T10:37:10.315Z,20.60
2018-05-12T10:39:38.638Z,21.40
2018-05-12T10:42:06.178Z,21.30
2018-05-12T10:44:33.735Z,21.60
2018-05-12T10:47:01.271Z,21.70
2018-05-12T10:49:29.599Z,21.60
2018-05-12T10:51:57.131Z,21.60
2018-05-12T10:54:24.701Z,21.90
2018-05-12T10:56:52.237Z,22.10
2018-05-12T10:59:19.794Z,22.30
2018-05-12T11:01:48.175Z,22.50
2018-05-12T11:04:15.674Z,22.50
2018-05-12T11:06:43.216Z,22.60
2018-05-12T11:09:10.789Z,22.70
2018-05-12T11:11:38.323Z,22.80
2018-05-12T11:14:05.865Z,22.80
2018-05-12T11:16:34.191Z,23.00
2018-05-12T11:19:01.748Z,23.00
2018-05-12T11:21:29.294Z,23.10
2018-05-12T11:23:56.831Z,23.20
2018-05-12T11:26:24.398Z,23.20
2018-05-12T11:28:51.940Z,23.30
2018-05-12T11:31:20.269Z,22.70
2018-05-12T11:33:47.814Z,22.70
2018-05-12T11:36:15.480Z,22.70
2018-05-12T11:38:43.025Z,22.90
2018-05-12T11:41:10.600Z,23.20
2018-05-12T11:43:38.152Z,23.40
2018-05-12T11:46:05.710Z,23.50
2018-05-12T11:48:33.249Z,23.60
2018-05-12T11:51:00.809Z,23.60
2018-05-12T11:53:29.115Z,23.70
2018-05-12T11:55:56.674Z,23.70
2018-05-12T11:58:24.287Z,23.90
2018-05-12T12:00:51.790Z,24.10
2018-05-12T12:03:19.319Z,24.10
2018-05-12T12:05:47.651Z,23.70
2018-05-12T12:08:15.190Z,23.60
2018-05-12T12:10:42.748Z,23.70
2018-05-12T12:13:10.281Z,23.80
2018-05-12T12:15:38.606Z,23.80
2018-05-12T12:18:06.147Z,23.70
2018-05-12T12:20:33.709Z,23.80
2018-05-12T12:23:01.242Z,23.80
2018-05-12T12:25:29.566Z,23.90
2018-05-12T12:27:57.107Z,23.80
2018-05-12T12:30:24.668Z,23.70
2018-05-12T12:32:52.216Z,23.70
2018-05-12T12:35:19.776Z,23.80
2018-05-12T12:37:47.311Z,23.70
2018-05-12T12:40:15.728Z,23.80
2018-05-12T12:42:43.255Z,23.80
2018-05-12T12:45:11.613Z,23.70
2018-05-12T12:47:39.130Z,23.70
2018-05-12T12:50:06.668Z,23.60
2018-05-12T12:52:34.229Z,23.50
2018-05-12T12:55:01.791Z,23.40
2018-05-12T12:57:29.582Z,23.40
2018-05-12T12:59:57.118Z,23.30
2018-05-12T13:02:24.674Z,23.30
2018-05-12T13:04:52.273Z,23.20
2018-05-12T13:07:19.787Z,23.10
2018-05-12T13:09:47.372Z,23.10
2018-05-12T13:12:14.927Z,23.10
2018-05-12T13:14:42.466Z,23.10
2018-05-12T13:17:10.031Z,23.00
2018-05-12T13:19:37.566Z,22.90
2018-05-12T13:22:05.975Z,22.70
2018-05-12T13:24:33.462Z,22.70
2018-05-12T13:27:01.014Z,22.70
2018-05-12T13:29:28.546Z,22.60
2018-05-12T13:31:56.102Z,22.70
2018-05-12T13:34:24.395Z,22.70
2018-05-12T13:36:51.955Z,22.70
2018-05-12T13:39:19.492Z,22.70
2018-05-12T13:41:47.813Z,22.70
2018-05-12T13:44:15.347Z,22.70
2018-05-12T13:46:42.903Z,22.70
2018-05-12T13:49:10.484Z,22.80
2018-05-12T13:51:39.241Z,22.70
2018-05-12T13:54:07.532Z,22.80
2018-05-12T13:56:35.089Z,22.80
2018-05-12T13:59:02.639Z,22.90
2018-05-12T14:01:30.968Z,22.90
2018-05-12T14:03:58.565Z,22.90
2018-05-12T14:06:26.906Z,22.90
2018-05-12T14:08:54.657Z,22.90
2018-05-12T14:11:22.316Z,22.90
2018-05-12T14:13:49.979Z,22.90
2018-05-12T14:16:17.722Z,23.00
2018-05-12T14:18:45.275Z,23.00
2018-05-12T14:21:13.594Z,23.10
2018-05-12T14:23:41.125Z,23.00
2018-05-12T14:26:08.702Z,23.10
2018-05-12T14:28:36.229Z,23.10
2018-05-12T14:31:04.559Z,23.10
2018-05-12T14:33:32.092Z,23.10
2018-05-12T14:35:59.647Z,23.10
2018-05-12T14:38:27.183Z,23.20
2018-05-12T14:40:55.500Z,23.20
2018-05-12T14:43:23.060Z,23.20
2018-05-12T14:45:50.593Z,23.20
2018-05-12T14:48:18.218Z,23.10
2018-05-12T14:50:45.749Z,23.10
2018-05-12T14:53:13.299Z,23.10
2018-05-12T14:55:40.832Z,23.10
2018-05-12T14:58:09.238Z,23.20
2018-05-12T15:00:36.770Z,23.20
2018-05-12T15:03:05.097Z,23.20
2018-05-12T15:05:32.633Z,23.20
2018-05-12T15:08:00.200Z,23.20
2018-05-12T15:10:27.737Z,23.20
2018-05-12T15:12:55.291Z,23.20
2018-05-12T15:15:22.877Z,23.20
2018-05-12T15:17:50.462Z,23.20
2018-05-12T15:20:17.996Z,23.20
2018-05-12T15:22:45.561Z,23.20
2018-05-12T15:25:13.102Z,23.20
2018-05-12T15:27:40.661Z,23.20
2018-05-12T15:30:08.191Z,23.20
2018-05-12T15:32:35.742Z,23.20
2018-05-12T15:35:03.289Z,23.20
2018-05-12T15:37:30.844Z,23.20
2018-05-12T15:39:58.375Z,23.20
2018-05-12T15:42:25.925Z,23.20
2018-05-12T15:44:53.459Z,23.20
2018-05-12T15:47:21.778Z,23.30
2018-05-12T15:49:49.368Z,23.20
2018-05-12T15:52:16.890Z,23.30
2018-05-12T15:54:44.419Z,23.30
2018-05-12T15:57:12.730Z,23.20
2018-05-12T15:59:40.253Z,23.20
2018-05-12T16:02:08.572Z,23.20
2018-05-12T16:04:36.131Z,23.20
2018-05-12T16:07:03.688Z,23.20
2018-05-12T16:09:31.214Z,23.20
2018-05-12T16:11:59.537Z,23.20
2018-05-12T16:14:27.080Z,23.20
2018-05-12T16:16:54.646Z,23.20
2018-05-12T16:19:22.176Z,23.20
2018-05-12T16:21:50.501Z,23.20
2018-05-12T16:24:18.039Z,23.20
2018-05-12T16:26:45.590Z,23.20
2018-05-12T16:29:13.113Z,23.20
2018-05-12T16:31:40.723Z,23.20
2018-05-12T16:34:08.995Z,23.20
2018-05-12T16:36:36.563Z,23.20
2018-05-12T16:39:04.098Z,23.20
2018-05-12T16:41:31.635Z,23.20
2018-05-12T16:43:59.193Z,23.20
2018-05-12T16:46:26.728Z,23.20
2018-05-12T16:48:54.282Z,23.20
2018-05-12T16:51:21.807Z,23.20
2018-05-12T16:53:49.363Z,23.20
2018-05-12T16:56:16.890Z,23.10
2018-05-12T16:58:44.447Z,23.10
2018-05-12T17:01:11.982Z,23.10
2018-05-12T17:03:39.549Z,23.10
2018-05-12T17:06:07.086Z,23.20
2018-05-12T17:08:34.642Z,23.10
2018-05-12T17:11:02.170Z,23.10
2018-05-12T17:13:30.499Z,23.10
2018-05-12T17:15:58.038Z,23.10
2018-05-12T17:18:25.595Z,23.10
2018-05-12T17:20:53.126Z,23.10
2018-05-12T17:23:21.559Z,23.10
2018-05-12T17:25:49.011Z,23.10
2018-05-12T17:28:16.660Z,23.10
2018-05-12T17:30:44.190Z,23.10
2018-05-12T17:33:12.513Z,23.10
2018-05-12T17:35:40.048Z,23.10
2018-05-12T17:38:07.603Z,23.10
2018-05-12T17:40:35.143Z,23.00
2018-05-12T17:43:03.471Z,23.00
2018-05-12T17:45:31.005Z,23.00
2018-05-12T17:47:58.558Z,23.00
2018-05-12T17:50:26.092Z,23.00
2018-05-12T17:52:54.415Z,23.00
2018-05-12T17:55:21.955Z,23.00
2018-05-12T17:57:49.519Z,23.00
2018-05-12T18:00:17.062Z,23.00
2018-05-12T18:02:45.386Z,23.00
2018-05-12T18:05:12.923Z,22.90
2018-05-12T18:07:40.473Z,22.90
2018-05-12T18:10:07.998Z,22.90
2018-05-12T18:12:35.542Z,22.90
2018-05-12T18:15:03.082Z,22.90
2018-05-12T18:17:31.414Z,22.90
2018-05-12T18:19:59.715Z,22.90
2018-05-12T18:22:27.285Z,22.80
2018-05-12T18:24:54.831Z,22.80
2018-05-12T18:27:22.382Z,22.80
2018-05-12T18:29:49.968Z,22.80
2018-05-12T18:32:17.503Z,22.80
2018-05-12T18:34:45.066Z,22.80
2018-05-12T18:37:12.600Z,22.80
2018-05-12T18:39:40.917Z,22.70
2018-05-12T18:42:09.218Z,22.70
2018-05-12T18:44:36.765Z,22.70
2018-05-12T18:47:04.295Z,22.70
2018-05-12T18:49:31.889Z,22.70
2018-05-12T18:51:59.420Z,22.70
2018-05-12T18:54:27.824Z,22.70
2018-05-12T18:56:55.359Z,22.70
2018-05-12T18:59:22.906Z,22.70
2018-05-12T19:01:51.203Z,22.60
2018-05-12T19:04:18.759Z,22.60
2018-05-12T19:06:46.290Z,22.60
2018-05-12T19:09:13.845Z,22.60
2018-05-12T19:11:42.148Z,22.60
2018-05-12T19:14:09.737Z,22.60
2018-05-12T19:16:37.265Z,22.60
2018-05-12T19:19:05.578Z,22.50
2018-05-12T19:21:33.107Z,22.50
2018-05-12T19:24:01.428Z,22.50
2018-05-12T19:26:28.962Z,22.50
2018-05-12T19:28:56.521Z,22.50
2018-05-12T19:31:24.058Z,22.50
2018-05-12T19:33:52.374Z,22.50
2018-05-12T19:36:19.906Z,22.50
2018-05-12T19:38:48.222Z,22.40
2018-05-12T19:41:15.754Z,22.40
2018-05-12T19:43:43.348Z,22.40
2018-05-12T19:46:11.644Z,22.40
2018-05-12T19:48:39.963Z,22.40
2018-05-12T19:51:07.500Z,22.30
2018-05-12T19:53:35.816Z,22.30
2018-05-12T19:56:03.354Z,22.30
2018-05-12T19:58:31.675Z,22.30
2018-05-12T20:00:59.206Z,22.30
2018-05-12T20:03:26.766Z,22.30
2018-05-12T20:05:54.306Z,22.30
2018-05-12T20:08:22.618Z,22.20
2018-05-12T20:10:50.160Z,22.20
2018-05-12T20:13:20.611Z,22.20
2018-05-12T20:15:48.150Z,22.20
2018-05-12T20:18:15.696Z,22.20
2018-05-12T20:20:44.019Z,24.40
2018-05-12T20:23:11.556Z,24.40
2018-05-12T20:25:39.113Z,25.20
2018-05-12T20:28:06.652Z,25.70
2018-05-12T20:30:34.975Z,26.30
2018-05-12T20:33:02.507Z,26.30
2018-05-12T20:35:30.073Z,26.50
2018-05-12T20:37:57.610Z,26.70
2018-05-12T20:40:25.928Z,26.80
2018-05-12T20:42:53.464Z,26.80
2018-05-12T20:45:21.020Z,26.90
2018-05-12T20:47:48.560Z,26.90
2018-05-12T20:50:16.894Z,26.90
2018-05-12T20:52:44.430Z,26.80
2018-05-12T20:55:11.987Z,26.90
2018-05-12T20:57:39.523Z,26.80
2018-05-12T21:00:07.853Z,26.90
2018-05-12T21:02:35.379Z,26.90
2018-05-12T21:05:02.952Z,26.80
2018-05-12T21:07:30.478Z,26.80
2018-05-12T21:09:58.798Z,26.80
2018-05-12T21:12:26.331Z,26.70
2018-05-12T21:14:53.888Z,26.80
2018-05-12T21:17:22.185Z,26.70
2018-05-12T21:19:49.746Z,26.70
2018-05-12T21:22:17.283Z,26.60
2018-05-12T21:24:45.602Z,26.70
2018-05-12T21:27:13.127Z,26.70
2018-05-12T21:29:40.710Z,26.60
2018-05-12T21:32:08.242Z,26.50
2018-05-12T21:34:36.565Z,26.50
2018-05-12T21:37:04.104Z,26.50
2018-05-12T21:39:31.670Z,26.40
2018-05-12T21:41:59.202Z,26.40
2018-05-12T21:44:26.760Z,26.40
2018-05-12T21:46:55.062Z,26.40
2018-05-12T21:49:22.622Z,26.40
2018-05-12T21:51:50.159Z,26.40
2018-05-12T21:54:17.713Z,26.30
2018-05-12T21:56:46.014Z,26.30
2018-05-12T21:59:13.579Z,26.20
2018-05-12T22:01:41.107Z,26.10
2018-05-12T22:04:09.522Z,26.00
2018-05-12T22:06:37.054Z,26.00
2018-05-12T22:09:05.380Z,26.00
2018-05-12T22:11:32.911Z,25.90
2018-05-12T22:14:00.448Z,26.00
2018-05-12T22:16:28.767Z,25.90
2018-05-12T22:18:56.317Z,25.80
2018-05-12T22:21:23.898Z,25.90
2018-05-12T22:23:51.440Z,25.80
2018-05-12T22:26:18.989Z,25.80
2018-05-12T22:28:46.520Z,25.70
2018-05-12T22:31:14.839Z,25.70
2018-05-12T22:33:42.373Z,25.60
2018-05-12T22:36:09.939Z,25.60
2018-05-12T22:38:38.240Z,25.50
2018-05-12T22:41:05.795Z,25.50
2018-05-12T22:43:33.327Z,25.50
2018-05-12T22:46:01.646Z,25.40
2018-05-12T22:48:29.177Z,25.40
2018-05-12T22:50:56.736Z,25.40
2018-05-12T22:53:24.279Z,25.40
2018-05-12T22:55:52.596Z,25.30
2018-05-12T22:58:20.138Z,25.30
2018-05-12T23:00:47.696Z,25.30
2018-05-12T23:03:15.226Z,25.30
2018-05-12T23:05:43.546Z,25.20
2018-05-12T23:08:11.071Z,25.20
2018-05-12T23:10:39.397Z,25.10
2018-05-12T23:13:06.923Z,25.10
2018-05-12T23:15:34.483Z,25.10
2018-05-12T23:18:02.014Z,25.10
2018-05-12T23:20:29.572Z,25.00
2018-05-12T23:22:57.102Z,25.00
2018-05-12T23:25:24.659Z,25.00
2018-05-12T23:27:52.196Z,25.00
2018-05-12T23:30:19.766Z,24.90
2018-05-12T23:32:47.301Z,24.80
2018-05-12T23:35:14.850Z,24.90
2018-05-12T23:37:43.157Z,24.80
2018-05-12T23:40:10.710Z,24.80
2018-05-12T23:42:38.246Z,24.80
2018-05-12T23:45:06.566Z,24.70
2018-05-12T23:47:34.095Z,24.70
2018-05-12T23:50:01.663Z,24.60
2018-05-12T23:52:29.196Z,24.60
2018-05-12T23:54:57.524Z,24.50
2018-05-12T23:57:25.059Z,24.50
2018-05-12T23:59:52.655Z,24.50
